Terminal Aerodrome Forecast
Issued by NWS Boise, ID

Home | Current Version | Previous Version | Text Only | Print | Product List | Glossary On
Versions: 1 2 3 4 5 6 7 8 9 10 11 12 13 14 15 16 17 18
000
FTUS45 KBOI 241850 AAB
TAFBOI
TAF AMD
KBOI 241850Z 2419/2518 13014G22KT P6SM -RA SCT070 BKN100
     FM242200 VRB05KT P6SM -RA OVC045
     FM250500 15005KT P6SM BKN080=

USA.gov is the U.S. government's official web portal to all federal, state and local government web resources and services.